createdAt,value
2022-09-21T00:01:21.871Z,10.80
2022-09-21T00:03:57.828Z,10.80
2022-09-21T00:06:27.293Z,10.90
2022-09-21T00:08:55.659Z,10.90
2022-09-21T00:11:27.715Z,10.90
2022-09-21T00:13:59.829Z,10.90
2022-09-21T00:16:28.762Z,10.90
2022-09-21T00:18:56.165Z,10.90
2022-09-21T00:21:24.405Z,10.90
2022-09-21T00:23:51.738Z,11.00
2022-09-21T00:26:21.837Z,11.00
2022-09-21T00:28:56.334Z,11.00
2022-09-21T00:31:24.551Z,11.00
2022-09-21T00:33:52.607Z,11.00
2022-09-21T00:36:24.121Z,11.10
2022-09-21T00:38:57.219Z,11.10
2022-09-21T00:41:25.503Z,11.10
2022-09-21T00:44:30.309Z,11.10
2022-09-21T00:47:08.851Z,11.10
2022-09-21T00:49:37.561Z,11.20
2022-09-21T00:52:06.821Z,11.20
2022-09-21T00:54:44.154Z,11.20
2022-09-21T00:57:12.460Z,11.20
2022-09-21T00:59:40.749Z,11.20
2022-09-21T01:02:08.498Z,11.20
2022-09-21T01:04:36.440Z,11.20
2022-09-21T01:07:12.310Z,11.20
2022-09-21T01:09:42.218Z,11.20
2022-09-21T01:12:27.964Z,11.30
2022-09-21T01:15:10.306Z,11.20
2022-09-21T01:17:51.579Z,11.20
2022-09-21T01:20:41.720Z,11.20
2022-09-21T01:23:38.185Z,11.20
2022-09-21T01:26:23.515Z,11.10
2022-09-21T01:29:05.814Z,11.10
2022-09-21T01:31:47.287Z,11.00
2022-09-21T01:34:24.536Z,11.00
2022-09-21T01:36:56.027Z,11.00
2022-09-21T01:39:25.533Z,11.00
2022-09-21T01:41:54.508Z,11.00
2022-09-21T01:44:28.896Z,10.90
2022-09-21T01:46:57.423Z,11.00
2022-09-21T01:49:40.400Z,11.00
2022-09-21T01:52:17.183Z,10.90
2022-09-21T01:54:54.715Z,10.90
2022-09-21T01:57:53.786Z,11.00
2022-09-21T02:00:21.694Z,10.90
2022-09-21T02:02:58.430Z,10.90
2022-09-21T02:05:28.293Z,11.00
2022-09-21T02:07:56.055Z,11.00
2022-09-21T02:10:31.300Z,11.00
2022-09-21T02:13:01.629Z,11.00
2022-09-21T02:15:58.363Z,11.00
2022-09-21T02:19:03.074Z,11.00
2022-09-21T02:21:41.175Z,11.00
2022-09-21T02:24:32.311Z,11.00
2022-09-21T02:27:18.301Z,11.10
2022-09-21T02:30:06.516Z,11.10
2022-09-21T02:32:50.509Z,11.10
2022-09-21T02:35:30.918Z,11.20
2022-09-21T02:38:13.287Z,11.20
2022-09-21T02:41:07.985Z,11.30
2022-09-21T02:43:51.722Z,11.30
2022-09-21T02:46:36.324Z,11.30
2022-09-21T02:49:38.401Z,11.30
2022-09-21T02:52:12.655Z,11.30
2022-09-21T02:54:42.036Z,11.30
2022-09-21T02:57:11.588Z,11.30
2022-09-21T02:59:40.181Z,11.30
2022-09-21T03:02:09.794Z,11.40
2022-09-21T03:04:37.448Z,11.40
2022-09-21T03:07:05.026Z,11.40
2022-09-21T03:09:32.269Z,11.40
2022-09-21T03:11:59.517Z,11.40
2022-09-21T03:14:26.798Z,11.40
2022-09-21T03:16:54.666Z,11.30
2022-09-21T03:19:22.046Z,11.40
2022-09-21T03:21:49.422Z,11.30
2022-09-21T03:24:36.645Z,11.30
2022-09-21T03:27:04.206Z,11.30
2022-09-21T03:29:31.456Z,11.30
2022-09-21T03:31:58.750Z,11.30
2022-09-21T03:34:26.692Z,11.20
2022-09-21T03:36:54.010Z,11.20
2022-09-21T03:39:21.260Z,11.20
2022-09-21T03:41:48.475Z,11.20
2022-09-21T03:44:17.658Z,11.10
2022-09-21T03:46:44.916Z,11.00
2022-09-21T03:49:12.216Z,11.00
2022-09-21T03:51:40.554Z,11.00
2022-09-21T03:54:07.982Z,11.00
2022-09-21T03:56:35.408Z,11.00
2022-09-21T03:59:02.704Z,10.90
2022-09-21T04:01:30.737Z,10.90
2022-09-21T04:03:57.983Z,10.90
2022-09-21T04:06:25.587Z,10.90
2022-09-21T04:08:54.796Z,10.90
2022-09-21T04:11:23.274Z,10.90
2022-09-21T04:13:53.262Z,10.90
2022-09-21T04:16:20.707Z,10.90
2022-09-21T04:18:50.420Z,10.90
2022-09-21T04:21:19.271Z,10.90
2022-09-21T04:23:46.607Z,10.80
2022-09-21T04:26:26.439Z,10.80
2022-09-21T04:28:55.481Z,10.80
2022-09-21T04:31:24.342Z,10.80
2022-09-21T04:33:53.821Z,10.80
2022-09-21T04:36:22.756Z,10.80
2022-09-21T04:38:50.824Z,10.80
2022-09-21T04:41:18.348Z,10.80
2022-09-21T04:43:47.512Z,10.80
2022-09-21T04:46:17.191Z,10.70
2022-09-21T04:48:44.796Z,10.80
2022-09-21T04:51:13.161Z,10.70
2022-09-21T04:53:42.163Z,10.80
2022-09-21T04:56:12.387Z,10.80
2022-09-21T04:58:39.797Z,10.80
2022-09-21T05:01:07.841Z,10.80
2022-09-21T05:03:35.496Z,10.80
2022-09-21T05:06:03.226Z,10.90
2022-09-21T05:08:49.077Z,10.90
2022-09-21T05:11:19.255Z,11.00
2022-09-21T05:13:47.299Z,11.10
2022-09-21T05:16:16.226Z,11.20
2022-09-21T05:18:44.652Z,11.20
2022-09-21T05:21:13.880Z,11.20
2022-09-21T05:23:41.722Z,11.20
2022-09-21T05:26:09.075Z,11.20
2022-09-21T05:28:40.070Z,11.20
2022-09-21T05:31:38.339Z,11.30
2022-09-21T05:34:14.804Z,11.40
2022-09-21T05:37:09.428Z,11.50
2022-09-21T05:39:37.096Z,11.60
2022-09-21T05:42:05.030Z,11.70
2022-09-21T05:44:32.537Z,11.80
2022-09-21T05:47:10.711Z,11.90
2022-09-21T05:50:03.448Z,12.00
2022-09-21T05:52:45.230Z,12.10
2022-09-21T05:55:39.716Z,12.30
2022-09-21T05:58:25.511Z,12.40
2022-09-21T06:01:09.339Z,12.50
2022-09-21T06:03:37.322Z,12.50
2022-09-21T06:06:04.915Z,12.60
2022-09-21T06:08:32.185Z,12.60
2022-09-21T06:10:59.633Z,12.70
2022-09-21T06:13:26.913Z,12.80
2022-09-21T06:15:54.302Z,12.90
2022-09-21T06:18:21.536Z,13.00
2022-09-21T06:20:48.923Z,13.10
2022-09-21T06:23:16.341Z,13.10
2022-09-21T06:25:43.715Z,13.10
2022-09-21T06:28:13.184Z,13.20
2022-09-21T06:30:42.347Z,13.20
2022-09-21T06:33:10.599Z,13.30
2022-09-21T06:35:37.834Z,13.30
2022-09-21T06:38:07.453Z,13.30
2022-09-21T06:40:37.547Z,13.40
2022-09-21T06:43:05.544Z,13.40
2022-09-21T06:45:33.451Z,13.50
2022-09-21T06:48:00.950Z,13.50
2022-09-21T06:50:28.327Z,13.70
2022-09-21T06:52:55.551Z,13.80
2022-09-21T06:55:22.756Z,14.00
2022-09-21T06:57:51.986Z,14.20
2022-09-21T07:00:19.330Z,14.20
2022-09-21T07:02:46.875Z,14.30
2022-09-21T07:05:14.402Z,14.30
2022-09-21T07:07:41.658Z,14.40
2022-09-21T07:10:14.453Z,14.50
2022-09-21T07:12:45.032Z,14.60
2022-09-21T07:15:13.438Z,14.90
2022-09-21T07:17:40.905Z,15.10
2022-09-21T07:20:08.565Z,15.10
2022-09-21T07:22:36.499Z,15.20
2022-09-21T07:25:05.174Z,15.10
2022-09-21T07:27:33.403Z,15.30
2022-09-21T07:30:00.763Z,15.30
2022-09-21T07:32:28.131Z,15.50
2022-09-21T07:34:56.392Z,15.60
2022-09-21T07:37:24.785Z,15.60
2022-09-21T07:39:53.249Z,15.40
2022-09-21T07:42:22.889Z,15.20
2022-09-21T07:44:51.226Z,15.30
2022-09-21T07:47:19.141Z,15.30
2022-09-21T07:49:47.080Z,15.30
2022-09-21T07:52:15.468Z,15.30
2022-09-21T07:54:42.872Z,15.40
2022-09-21T07:57:28.600Z,15.60
2022-09-21T07:59:59.287Z,15.80
2022-09-21T08:02:26.748Z,16.20
2022-09-21T08:04:55.056Z,16.20
2022-09-21T08:07:22.364Z,16.20
2022-09-21T08:09:50.919Z,16.10
2022-09-21T08:12:19.799Z,15.80
2022-09-21T08:14:48.186Z,15.80
2022-09-21T08:17:15.799Z,15.90
2022-09-21T08:19:43.203Z,16.00
2022-09-21T08:22:12.311Z,16.00
2022-09-21T08:24:44.582Z,15.80
2022-09-21T08:27:11.951Z,15.70
2022-09-21T08:29:39.344Z,15.70
2022-09-21T08:32:06.754Z,15.70
2022-09-21T08:34:34.372Z,15.70
2022-09-21T08:37:01.581Z,15.80
2022-09-21T08:39:28.931Z,15.90
2022-09-21T08:42:08.393Z,15.90
2022-09-21T08:44:56.313Z,15.90
2022-09-21T08:47:39.615Z,15.90
2022-09-21T08:50:20.459Z,16.00
2022-09-21T08:52:49.822Z,16.00
2022-09-21T08:55:20.309Z,16.20
2022-09-21T08:57:47.570Z,16.30
2022-09-21T09:00:17.713Z,16.40
2022-09-21T09:03:20.036Z,16.70
2022-09-21T09:05:58.972Z,16.80
2022-09-21T09:08:38.311Z,16.90
2022-09-21T09:11:40.579Z,16.80
2022-09-21T09:14:27.508Z,16.70
2022-09-21T09:17:09.774Z,16.40
2022-09-21T09:19:40.058Z,16.20
2022-09-21T09:22:11.170Z,16.30
2022-09-21T09:24:43.467Z,16.50
2022-09-21T09:27:36.861Z,16.70
2022-09-21T09:30:20.699Z,16.70
2022-09-21T09:33:03.397Z,16.70
2022-09-21T09:35:35.553Z,16.80
2022-09-21T09:38:44.643Z,16.80
2022-09-21T09:41:29.020Z,17.10
2022-09-21T09:43:56.319Z,17.40
2022-09-21T09:46:43.175Z,17.50
2022-09-21T09:49:22.495Z,17.70
2022-09-21T09:51:51.248Z,18.00
2022-09-21T09:54:21.655Z,18.20
2022-09-21T09:56:48.902Z,18.30
2022-09-21T09:59:30.608Z,18.30
2022-09-21T10:02:08.072Z,18.10
2022-09-21T10:04:35.377Z,17.80
2022-09-21T10:07:02.912Z,17.70
2022-09-21T10:09:32.515Z,17.70
2022-09-21T10:12:24.009Z,17.50
2022-09-21T10:14:53.683Z,17.60
2022-09-21T10:17:23.472Z,17.80
2022-09-21T10:20:04.201Z,18.00
2022-09-21T10:22:31.445Z,17.90
2022-09-21T10:25:01.646Z,17.80
2022-09-21T10:27:33.531Z,17.60
2022-09-21T10:30:02.091Z,17.50
2022-09-21T10:32:29.969Z,17.50
2022-09-21T10:35:03.086Z,17.60
2022-09-21T10:37:37.510Z,17.80
2022-09-21T10:40:15.732Z,17.80
2022-09-21T10:42:43.644Z,18.00
2022-09-21T10:45:16.312Z,18.40
2022-09-21T10:47:50.343Z,18.20
2022-09-21T10:50:42.893Z,18.10
2022-09-21T10:53:10.086Z,17.80
2022-09-21T10:56:11.940Z,17.50
2022-09-21T10:58:42.507Z,17.40
2022-09-21T11:01:37.150Z,17.50
2022-09-21T11:04:10.730Z,17.70
2022-09-21T11:06:42.348Z,17.80
2022-09-21T11:09:34.300Z,17.90
2022-09-21T11:12:25.027Z,18.10
2022-09-21T11:15:19.979Z,18.20
2022-09-21T11:17:59.303Z,18.30
2022-09-21T11:20:54.991Z,18.40
2022-09-21T11:23:41.479Z,18.60
2022-09-21T11:26:37.057Z,18.70
2022-09-21T11:29:28.911Z,18.80
2022-09-21T11:32:30.451Z,18.60
2022-09-21T11:35:18.710Z,18.40
2022-09-21T11:37:55.058Z,18.30
2022-09-21T11:40:54.550Z,18.50
2022-09-21T11:43:27.739Z,18.60
2022-09-21T11:46:07.083Z,18.70
2022-09-21T11:48:59.478Z,18.70
2022-09-21T11:51:49.683Z,18.40
2022-09-21T11:54:35.258Z,18.10
2022-09-21T11:57:11.315Z,18.00
2022-09-21T11:59:44.923Z,18.10
2022-09-21T12:05:55.479Z,18.40
2022-09-21T12:08:46.505Z,18.60
2022-09-21T12:11:32.440Z,18.70
2022-09-21T12:14:39.192Z,18.70
2022-09-21T12:17:25.168Z,18.80
2022-09-21T12:20:16.594Z,18.80
2022-09-21T12:22:49.778Z,18.80
2022-09-21T12:25:23.671Z,18.70
2022-09-21T12:28:01.462Z,18.60
2022-09-21T12:30:31.830Z,18.40
2022-09-21T12:33:15.418Z,18.40
2022-09-21T12:35:55.977Z,18.40
2022-09-21T12:38:35.437Z,18.50
2022-09-21T12:41:35.772Z,18.50
2022-09-21T12:44:06.517Z,18.60
2022-09-21T12:47:09.130Z,18.60
2022-09-21T12:49:46.721Z,18.70
2022-09-21T12:52:26.866Z,18.70
2022-09-21T12:54:56.905Z,18.80
2022-09-21T12:57:58.642Z,18.80
2022-09-21T13:01:17.472Z,18.80
2022-09-21T13:04:02.172Z,18.90
2022-09-21T13:06:29.406Z,19.00
2022-09-21T13:09:00.172Z,19.20
2022-09-21T13:11:27.631Z,19.40
2022-09-21T13:14:04.465Z,19.70
2022-09-21T13:16:34.887Z,19.90
2022-09-21T13:19:05.045Z,19.90
2022-09-21T13:21:33.687Z,19.70
2022-09-21T13:24:03.717Z,19.70
2022-09-21T13:26:52.381Z,19.60
2022-09-21T13:29:19.827Z,19.50
2022-09-21T13:32:19.525Z,19.40
2022-09-21T13:34:48.201Z,19.30
2022-09-21T13:37:27.402Z,19.30
2022-09-21T13:40:04.289Z,19.30
2022-09-21T13:42:34.812Z,19.50
2022-09-21T13:45:24.628Z,19.60
2022-09-21T13:48:00.325Z,19.60
2022-09-21T13:50:27.641Z,19.70
2022-09-21T13:53:01.533Z,19.60
2022-09-21T13:55:32.096Z,19.60
2022-09-21T13:58:04.852Z,19.60
2022-09-21T14:00:40.086Z,19.50
2022-09-21T14:03:28.354Z,19.40
2022-09-21T14:06:06.848Z,19.20
2022-09-21T14:08:39.065Z,19.20
2022-09-21T14:11:16.879Z,19.20
2022-09-21T14:14:14.789Z,19.30
2022-09-21T14:16:44.659Z,19.10
2022-09-21T14:19:18.036Z,19.00
2022-09-21T14:22:20.695Z,19.00
2022-09-21T14:24:51.349Z,18.80
2022-09-21T14:27:45.845Z,18.60
2022-09-21T14:30:22.564Z,18.50
2022-09-21T14:33:02.334Z,18.40
2022-09-21T14:35:43.255Z,18.40
2022-09-21T14:38:22.415Z,18.40
2022-09-21T14:40:52.694Z,18.40
2022-09-21T14:43:30.283Z,18.40
2022-09-21T14:46:10.397Z,18.50
2022-09-21T14:48:51.299Z,18.50
2022-09-21T14:51:42.839Z,18.50
2022-09-21T14:54:43.403Z,18.60
2022-09-21T14:57:35.295Z,18.70
2022-09-21T15:00:23.267Z,18.90
2022-09-21T15:03:03.708Z,18.80
2022-09-21T15:05:43.975Z,18.70
2022-09-21T15:08:49.864Z,18.60
2022-09-21T15:11:38.020Z,18.40
2022-09-21T15:14:27.167Z,18.20
2022-09-21T15:16:54.826Z,18.20
2022-09-21T15:19:25.732Z,18.10
2022-09-21T15:22:15.314Z,18.10
2022-09-21T15:24:51.522Z,17.90
2022-09-21T15:27:22.870Z,17.80
2022-09-21T15:29:54.546Z,17.80
2022-09-21T15:32:42.741Z,17.70
2022-09-21T15:35:23.203Z,17.60
2022-09-21T15:37:52.257Z,17.50
2022-09-21T15:40:46.853Z,17.40
2022-09-21T15:43:19.512Z,17.30
2022-09-21T15:45:54.626Z,17.20
2022-09-21T15:48:26.870Z,17.10
2022-09-21T15:50:59.135Z,17.00
2022-09-21T15:53:34.203Z,16.90
2022-09-21T15:56:01.961Z,16.80
2022-09-21T15:58:38.638Z,16.70
2022-09-21T16:01:24.890Z,16.60
2022-09-21T16:04:08.307Z,16.50
2022-09-21T16:06:39.146Z,16.40
2022-09-21T16:09:25.248Z,16.40
2022-09-21T16:11:53.727Z,16.30
2022-09-21T16:14:40.539Z,16.30
2022-09-21T16:17:15.033Z,16.20
2022-09-21T16:20:23.438Z,16.20
2022-09-21T16:22:54.941Z,16.10
2022-09-21T16:25:30.106Z,16.10
2022-09-21T16:28:15.432Z,16.00
2022-09-21T16:30:52.590Z,16.00
2022-09-21T16:33:38.320Z,15.90
2022-09-21T16:36:25.701Z,15.90
2022-09-21T16:38:53.947Z,15.80
2022-09-21T16:41:32.174Z,15.80
2022-09-21T16:44:00.794Z,15.70
2022-09-21T16:46:28.339Z,15.70
2022-09-21T16:48:55.589Z,15.60
2022-09-21T16:51:25.101Z,15.50
2022-09-21T16:53:52.628Z,15.50
2022-09-21T16:56:20.272Z,15.40
2022-09-21T16:58:47.645Z,15.40
2022-09-21T17:01:20.908Z,15.30
2022-09-21T17:03:48.510Z,15.20
2022-09-21T17:06:21.495Z,15.20
2022-09-21T17:08:49.861Z,15.10
2022-09-21T17:11:20.021Z,15.10
2022-09-21T17:13:51.928Z,15.00
2022-09-21T17:16:20.289Z,14.90
2022-09-21T17:18:48.818Z,14.90
2022-09-21T17:21:16.730Z,14.80
2022-09-21T17:23:45.025Z,14.80
2022-09-21T17:26:17.582Z,14.80
2022-09-21T17:28:45.152Z,14.80
2022-09-21T17:31:23.515Z,14.70
2022-09-21T17:33:51.503Z,14.70
2022-09-21T17:36:18.930Z,14.70
2022-09-21T17:38:46.803Z,14.70
2022-09-21T17:41:18.213Z,14.60
2022-09-21T17:44:16.572Z,14.60
2022-09-21T17:47:08.708Z,14.50
2022-09-21T17:49:36.697Z,14.40
2022-09-21T17:52:23.140Z,14.40
2022-09-21T17:54:53.036Z,14.30
2022-09-21T17:57:44.415Z,14.30
2022-09-21T18:00:34.955Z,14.30
2022-09-21T18:03:02.887Z,14.20
2022-09-21T18:05:30.758Z,14.20
2022-09-21T18:07:58.982Z,14.20
2022-09-21T18:10:27.100Z,14.20
2022-09-21T18:13:23.322Z,14.30
2022-09-21T18:16:03.518Z,14.30
2022-09-21T18:18:46.785Z,14.30
2022-09-21T18:21:19.884Z,14.30
2022-09-21T18:24:14.992Z,14.30
2022-09-21T18:26:43.231Z,14.20
2022-09-21T18:29:40.421Z,14.20
2022-09-21T18:32:30.623Z,14.20
2022-09-21T18:35:00.694Z,14.10
2022-09-21T18:37:43.170Z,14.00
2022-09-21T18:40:25.824Z,14.00
2022-09-21T18:43:03.594Z,13.90
2022-09-21T18:45:41.933Z,13.80
2022-09-21T18:48:31.235Z,13.80
2022-09-21T18:51:02.766Z,13.70
2022-09-21T18:53:44.877Z,13.70
2022-09-21T18:56:13.011Z,13.60
2022-09-21T18:58:42.821Z,13.60
2022-09-21T19:01:15.214Z,13.60
2022-09-21T19:03:46.025Z,13.60
2022-09-21T19:06:19.157Z,13.50
2022-09-21T19:09:14.425Z,13.50
2022-09-21T19:12:02.084Z,13.60
2022-09-21T19:15:03.790Z,13.60
2022-09-21T19:17:47.679Z,13.60
2022-09-21T19:20:42.052Z,13.70
2022-09-21T19:23:28.366Z,13.70
2022-09-21T19:26:17.441Z,13.80
2022-09-21T19:28:56.543Z,13.80
2022-09-21T19:31:23.995Z,13.80
2022-09-21T19:33:51.797Z,13.90
2022-09-21T19:36:20.560Z,13.90
2022-09-21T19:38:48.090Z,13.90
2022-09-21T19:41:40.826Z,13.90
2022-09-21T19:44:35.215Z,13.90
2022-09-21T19:47:36.572Z,13.90
2022-09-21T19:50:17.206Z,13.90
2022-09-21T19:52:45.954Z,13.90
2022-09-21T19:55:37.818Z,13.90
2022-09-21T19:58:24.808Z,13.90
2022-09-21T20:00:55.087Z,13.90
2022-09-21T20:03:44.122Z,13.90
2022-09-21T20:06:39.954Z,13.90
2022-09-21T20:09:14.931Z,13.90
2022-09-21T20:11:51.208Z,13.80
2022-09-21T20:14:33.010Z,13.70
2022-09-21T20:17:08.754Z,13.70
2022-09-21T20:20:13.744Z,13.70
2022-09-21T20:22:41.711Z,13.60
2022-09-21T20:25:09.384Z,13.60
2022-09-21T20:27:50.675Z,13.60
2022-09-21T20:30:22.226Z,13.60
2022-09-21T20:32:53.502Z,13.60
2022-09-21T20:35:26.786Z,13.50
2022-09-21T20:37:57.443Z,13.50
2022-09-21T20:40:29.076Z,13.40
2022-09-21T20:42:57.492Z,13.40
2022-09-21T20:45:25.225Z,13.30
2022-09-21T20:47:53.888Z,13.30
2022-09-21T20:50:22.092Z,13.20
2022-09-21T20:52:49.306Z,13.20
2022-09-21T20:55:17.483Z,13.10
2022-09-21T20:57:45.015Z,13.10
2022-09-21T21:00:14.872Z,13.00
2022-09-21T21:02:42.974Z,13.00
2022-09-21T21:05:11.512Z,12.90
2022-09-21T21:07:42.635Z,12.90
2022-09-21T21:10:15.529Z,12.80
2022-09-21T21:12:42.908Z,12.80
2022-09-21T21:15:11.774Z,12.70
2022-09-21T21:17:39.694Z,12.70
2022-09-21T21:20:08.783Z,12.60
2022-09-21T21:22:36.420Z,12.50
2022-09-21T21:25:04.199Z,12.50
2022-09-21T21:27:31.722Z,12.50
2022-09-21T21:29:59.738Z,12.50
2022-09-21T21:32:28.238Z,12.40
2022-09-21T21:34:55.803Z,12.40
2022-09-21T21:37:25.686Z,12.40
2022-09-21T21:39:54.183Z,12.40
2022-09-21T21:42:22.198Z,12.40
2022-09-21T21:44:50.757Z,12.40
2022-09-21T21:47:38.670Z,12.40
2022-09-21T21:50:06.294Z,12.40
2022-09-21T21:52:33.661Z,12.40
2022-09-21T21:55:01.628Z,12.40
2022-09-21T21:57:28.998Z,12.30
2022-09-21T21:59:56.570Z,12.30
2022-09-21T22:02:24.390Z,12.30
2022-09-21T22:04:52.738Z,12.20
2022-09-21T22:07:19.992Z,12.10
2022-09-21T22:09:47.554Z,12.10
2022-09-21T22:12:15.626Z,12.10
2022-09-21T22:14:46.141Z,12.10
2022-09-21T22:17:14.019Z,12.00
2022-09-21T22:19:42.489Z,12.00
2022-09-21T22:22:10.196Z,12.00
2022-09-21T22:24:37.600Z,12.00
2022-09-21T22:27:05.151Z,11.90
2022-09-21T22:29:32.731Z,11.90
2022-09-21T22:32:00.616Z,11.90
2022-09-21T22:34:28.253Z,11.90
2022-09-21T22:36:56.390Z,12.00
2022-09-21T22:39:23.612Z,12.10
2022-09-21T22:41:50.838Z,12.10
2022-09-21T22:44:18.488Z,12.20
2022-09-21T22:46:45.691Z,12.20
2022-09-21T22:49:12.957Z,12.30
2022-09-21T22:51:40.178Z,12.30
2022-09-21T22:54:07.964Z,12.30
2022-09-21T22:56:35.551Z,12.30
2022-09-21T22:59:05.094Z,12.30
2022-09-21T23:01:40.284Z,12.40
2022-09-21T23:04:12.346Z,12.40
2022-09-21T23:06:43.617Z,12.40
2022-09-21T23:09:18.349Z,12.40
2022-09-21T23:11:47.983Z,12.30
2022-09-21T23:14:16.691Z,12.30
2022-09-21T23:16:45.046Z,12.20
2022-09-21T23:19:15.992Z,12.10
2022-09-21T23:21:46.574Z,12.10
2022-09-21T23:24:13.925Z,12.00
2022-09-21T23:26:41.974Z,12.00
2022-09-21T23:29:12.714Z,12.00
2022-09-21T23:31:44.735Z,11.90
2022-09-21T23:34:13.327Z,11.90
2022-09-21T23:36:41.605Z,11.90
2022-09-21T23:39:11.724Z,11.90
2022-09-21T23:41:39.198Z,11.80
2022-09-21T23:44:07.199Z,11.80
2022-09-21T23:46:37.028Z,11.90
2022-09-21T23:49:04.703Z,11.90
2022-09-21T23:51:32.061Z,11.90
2022-09-21T23:54:00.159Z,11.90
2022-09-21T23:56:28.853Z,11.90
2022-09-21T23:58:56.320Z,11.90
